createdAt,value
2022-08-14T00:02:16.940Z,21196.09
2022-08-14T00:04:45.467Z,21187.97
2022-08-14T00:07:14.865Z,21143.22
2022-08-14T00:10:01.626Z,21216.41
2022-08-14T00:12:48.280Z,21200.16
2022-08-14T00:15:29.879Z,21177.78
2022-08-14T00:18:09.074Z,21175.75
2022-08-14T00:20:44.563Z,21114.75
2022-08-14T00:23:18.225Z,21129.00
2022-08-14T00:25:53.727Z,21114.75
2022-08-14T00:28:36.786Z,21106.63
2022-08-14T00:31:08.092Z,21106.63
2022-08-14T00:33:49.210Z,21088.34
2022-08-14T00:36:36.688Z,21131.03
2022-08-14T00:39:15.115Z,21122.91
2022-08-14T00:41:46.395Z,21131.03
2022-08-14T00:44:26.686Z,21135.09
2022-08-14T00:47:02.371Z,21129.00
2022-08-14T00:49:42.706Z,21124.94
2022-08-14T00:52:13.884Z,21135.09
2022-08-14T00:54:43.760Z,21131.03
2022-08-14T00:57:14.165Z,21090.38
2022-08-14T00:59:44.142Z,21145.25
2022-08-14T01:02:13.734Z,21171.69
2022-08-14T01:04:53.910Z,21163.56
2022-08-14T01:07:24.860Z,21139.16
2022-08-14T01:10:01.648Z,21165.59
2022-08-14T01:12:30.773Z,21165.59
2022-08-14T01:15:03.032Z,21090.38
2022-08-14T01:17:49.535Z,21090.38
2022-08-14T01:20:40.110Z,21061.91
2022-08-14T01:23:16.190Z,21068.00
2022-08-14T01:25:48.728Z,21043.59
2022-08-14T01:28:34.106Z,21059.88
2022-08-14T01:31:12.297Z,21045.63
2022-08-14T01:33:59.691Z,21019.22
2022-08-14T01:36:37.079Z,21013.13
2022-08-14T01:39:13.333Z,21025.31
2022-08-14T01:41:44.370Z,20960.25
2022-08-14T01:44:31.248Z,20958.22
2022-08-14T01:47:12.166Z,20988.72
2022-08-14T01:50:01.223Z,20956.19
2022-08-14T01:52:59.054Z,20978.56
2022-08-14T01:55:32.303Z,20944.00
2022-08-14T01:58:20.209Z,20974.50
2022-08-14T02:00:54.783Z,20964.31
2022-08-14T02:03:29.602Z,20980.59
2022-08-14T02:06:03.482Z,20968.38
2022-08-14T02:08:37.671Z,20964.31
2022-08-14T02:11:25.494Z,21009.03
2022-08-14T02:14:00.113Z,21027.34
2022-08-14T02:16:39.511Z,21002.94
2022-08-14T02:19:12.402Z,20992.78
2022-08-14T02:21:43.623Z,20962.28
2022-08-14T02:24:39.908Z,20958.22
2022-08-14T02:28:25.728Z,20960.25
2022-08-14T02:30:00.636Z,20919.59
2022-08-14T02:32:36.981Z,20931.78
2022-08-14T02:35:17.922Z,20929.75
2022-08-14T02:37:47.908Z,20925.69
2022-08-14T02:40:18.517Z,20937.91
2022-08-14T02:42:54.876Z,20931.78
2022-08-14T02:45:37.841Z,20929.75
2022-08-14T02:49:04.066Z,20935.88
2022-08-14T02:51:00.572Z,20917.56
2022-08-14T02:53:29.803Z,20913.50
2022-08-14T02:56:03.321Z,20968.38
2022-08-14T02:58:55.568Z,20901.31
2022-08-14T03:01:31.350Z,20899.28
2022-08-14T03:04:17.634Z,20885.03
2022-08-14T03:06:57.037Z,20950.09
2022-08-14T03:10:26.730Z,20907.41
2022-08-14T03:12:17.932Z,20927.72
2022-08-14T03:15:14.230Z,20946.03
2022-08-14T03:17:58.297Z,20915.53
2022-08-14T03:20:29.052Z,20913.50
2022-08-14T03:22:59.419Z,20921.63
2022-08-14T03:25:34.375Z,20909.44
2022-08-14T03:28:14.947Z,20931.78
2022-08-14T03:30:59.737Z,20915.53
2022-08-14T03:33:37.728Z,20911.47
2022-08-14T03:37:39.185Z,20911.47
2022-08-14T03:39:14.270Z,20915.53
2022-08-14T03:41:50.474Z,20915.53
2022-08-14T03:45:20.111Z,20907.41
2022-08-14T03:47:09.301Z,20885.03
2022-08-14T03:49:42.263Z,20899.28
2022-08-14T03:52:37.669Z,20909.44
2022-08-14T03:55:01.083Z,20895.19
2022-08-14T03:57:32.262Z,20897.25
2022-08-14T04:00:03.028Z,20931.78
2022-08-14T04:02:37.454Z,20929.75
2022-08-14T04:05:16.803Z,20870.81
2022-08-14T04:08:00.174Z,20913.50
2022-08-14T04:10:34.964Z,20895.19
2022-08-14T04:13:06.032Z,20933.81
2022-08-14T04:15:55.881Z,20925.69
2022-08-14T04:18:24.268Z,20954.16
2022-08-14T04:20:55.259Z,20899.28
2022-08-14T04:23:29.419Z,20907.41
2022-08-14T04:26:03.200Z,20913.50
2022-08-14T04:29:09.145Z,20946.03
2022-08-14T04:32:56.582Z,20935.88
2022-08-14T04:34:20.759Z,20950.09
2022-08-14T04:37:10.675Z,20964.31
2022-08-14T04:39:56.737Z,20976.53
2022-08-14T04:42:47.365Z,20980.59
2022-08-14T04:45:21.703Z,21011.09
2022-08-14T04:48:10.120Z,21007.00
2022-08-14T04:50:44.812Z,21031.41
2022-08-14T04:53:17.159Z,21065.97
2022-08-14T04:55:53.112Z,21094.44
2022-08-14T04:58:32.950Z,21135.09
2022-08-14T05:01:06.166Z,21151.34
2022-08-14T05:03:41.743Z,21167.63
2022-08-14T05:06:37.848Z,21200.16
2022-08-14T05:09:02.046Z,21240.81
2022-08-14T05:11:33.466Z,21232.69
2022-08-14T05:14:34.127Z,21236.75
2022-08-14T05:16:53.874Z,21216.41
2022-08-14T05:19:29.249Z,21275.38
2022-08-14T05:22:16.737Z,21257.09
2022-08-14T05:24:50.617Z,21230.66
2022-08-14T05:27:23.092Z,21228.63
2022-08-14T05:29:56.873Z,21242.84
2022-08-14T05:32:27.513Z,21255.03
2022-08-14T05:34:57.952Z,21253.00
2022-08-14T05:37:30.754Z,21273.34
2022-08-14T05:40:01.078Z,21301.81
2022-08-14T05:42:34.018Z,21269.28
2022-08-14T05:45:05.184Z,21287.56
2022-08-14T05:47:42.992Z,21305.88
2022-08-14T05:50:17.342Z,21338.41
2022-08-14T05:52:51.309Z,21436.00
2022-08-14T05:55:23.269Z,21446.16
2022-08-14T05:57:57.780Z,21480.72
2022-08-14T06:00:38.695Z,21503.09
2022-08-14T06:03:17.086Z,21529.53
2022-08-14T06:05:47.216Z,21515.28
2022-08-14T06:08:36.271Z,21586.47
2022-08-14T06:11:20.074Z,21592.56
2022-08-14T06:13:48.895Z,21590.53
2022-08-14T06:16:20.234Z,21612.88
2022-08-14T06:18:52.502Z,21619.00
2022-08-14T06:21:22.658Z,21635.25
2022-08-14T06:23:52.648Z,21741.00
2022-08-14T06:26:22.421Z,21771.50
2022-08-14T06:28:52.191Z,21761.31
2022-08-14T06:31:21.347Z,21773.53
2022-08-14T06:35:11.452Z,21812.16
2022-08-14T06:36:39.528Z,21871.13
2022-08-14T06:39:10.478Z,21875.19
2022-08-14T06:41:57.930Z,21903.66
2022-08-14T06:44:30.848Z,21926.03
2022-08-14T06:47:02.614Z,21907.72
2022-08-14T06:49:30.990Z,21952.47
2022-08-14T06:52:08.792Z,21985.00
2022-08-14T06:54:38.595Z,21954.50
2022-08-14T06:57:07.885Z,22017.53
2022-08-14T06:59:43.221Z,22046.00
2022-08-14T07:02:29.428Z,22023.63
2022-08-14T07:05:20.779Z,21999.25
2022-08-14T07:07:49.338Z,21993.13
2022-08-14T07:10:22.281Z,22009.41
2022-08-14T07:13:01.367Z,21997.19
2022-08-14T07:15:34.011Z,22007.38
2022-08-14T07:18:03.754Z,22037.88
2022-08-14T07:20:36.844Z,22015.50
2022-08-14T07:23:10.987Z,21995.16
2022-08-14T07:25:43.715Z,22001.28
2022-08-14T07:28:20.428Z,22021.59
2022-08-14T07:30:50.962Z,22019.56
2022-08-14T07:33:24.509Z,22062.28
2022-08-14T07:36:00.751Z,22033.81
2022-08-14T07:38:35.855Z,22064.31
2022-08-14T07:41:14.826Z,22052.09
2022-08-14T07:43:55.180Z,22107.00
2022-08-14T07:46:28.240Z,22131.41
2022-08-14T07:48:58.010Z,22123.28
2022-08-14T07:51:34.148Z,22182.25
2022-08-14T07:54:11.041Z,22163.94
2022-08-14T07:56:48.022Z,22182.25
2022-08-14T07:59:18.089Z,22182.25
2022-08-14T08:01:48.194Z,22237.16
2022-08-14T08:04:27.188Z,22271.72
2022-08-14T08:06:56.693Z,22241.22
2022-08-14T08:09:32.547Z,22241.22
2022-08-14T08:12:09.306Z,22255.47
2022-08-14T08:14:56.470Z,22249.38
2022-08-14T08:17:34.867Z,22231.06
2022-08-14T08:20:11.648Z,22263.59
2022-08-14T08:22:40.870Z,22294.09
2022-08-14T08:25:13.513Z,22314.44
2022-08-14T08:27:44.968Z,22330.72
2022-08-14T08:30:14.980Z,22306.31
2022-08-14T08:32:45.949Z,22383.59
2022-08-14T08:35:21.060Z,22373.41
2022-08-14T08:38:01.282Z,22405.97
2022-08-14T08:40:42.339Z,22420.19
2022-08-14T08:43:22.056Z,22428.31
2022-08-14T08:45:57.434Z,22458.84
2022-08-14T08:48:31.839Z,22460.88
2022-08-14T08:51:06.316Z,22538.16
2022-08-14T08:53:36.503Z,22523.91
2022-08-14T08:56:05.523Z,22593.06
2022-08-14T08:58:39.193Z,22599.16
2022-08-14T09:01:07.530Z,22621.53
2022-08-14T09:03:40.777Z,22603.22
2022-08-14T09:07:01.147Z,22633.75
2022-08-14T09:09:00.560Z,22662.22
2022-08-14T09:11:29.463Z,22711.03
2022-08-14T09:14:00.474Z,22702.88
2022-08-14T09:16:28.517Z,22709.00
2022-08-14T09:18:56.932Z,22719.16
2022-08-14T09:21:31.188Z,22713.06
2022-08-14T09:24:28.705Z,22757.81
2022-08-14T09:26:50.003Z,22725.25
2022-08-14T09:29:23.501Z,22725.25
2022-08-14T09:31:58.116Z,22753.75
2022-08-14T09:34:58.950Z,22759.84
2022-08-14T09:37:43.934Z,22804.59
2022-08-14T09:40:29.415Z,22794.41
2022-08-14T09:43:19.963Z,22826.97
2022-08-14T09:45:53.897Z,22871.72
2022-08-14T09:48:29.988Z,22883.91
2022-08-14T09:54:18.850Z,22928.66
2022-08-14T09:56:31.737Z,22949.00
2022-08-14T09:59:15.072Z,22904.25
2022-08-14T10:01:52.644Z,22912.38
2022-08-14T10:04:32.833Z,22883.91
2022-08-14T10:07:05.099Z,22924.59
2022-08-14T10:09:35.250Z,22936.78
2022-08-14T10:12:06.829Z,22942.91
2022-08-14T10:14:53.347Z,22951.03
2022-08-14T10:17:27.511Z,23001.88
2022-08-14T10:19:58.179Z,22973.41
2022-08-14T10:23:13.513Z,22997.81
2022-08-14T10:25:19.848Z,23026.28
2022-08-14T10:27:59.259Z,23095.44
2022-08-14T10:30:37.693Z,23146.28
2022-08-14T10:33:07.330Z,23136.13
2022-08-14T10:35:48.013Z,23172.75
2022-08-14T10:38:27.776Z,23117.81
2022-08-14T10:40:59.470Z,23115.78
2022-08-14T10:43:31.720Z,23162.56
2022-08-14T10:46:21.764Z,23233.75
2022-08-14T10:49:04.224Z,23266.31
2022-08-14T10:51:39.735Z,23317.16
2022-08-14T10:54:26.317Z,23274.44
2022-08-14T10:57:13.673Z,23294.78
2022-08-14T10:59:53.041Z,23264.28
2022-08-14T11:02:53.984Z,23256.13
2022-08-14T11:05:27.048Z,23292.75
2022-08-14T11:08:00.751Z,23331.41
2022-08-14T11:10:46.816Z,23353.78
2022-08-14T11:13:21.226Z,23300.91
2022-08-14T11:15:53.524Z,23339.53
2022-08-14T11:18:30.332Z,23276.47
2022-08-14T11:21:08.106Z,23315.13
2022-08-14T11:23:41.234Z,23424.97
2022-08-14T11:26:16.690Z,23494.16
2022-08-14T11:28:49.770Z,23536.88
2022-08-14T11:31:23.456Z,23567.38
2022-08-14T11:33:57.882Z,23675.19
2022-08-14T11:36:56.919Z,23734.19
2022-08-14T11:39:23.125Z,23738.25
2022-08-14T11:42:55.326Z,23815.56
2022-08-14T11:45:00.214Z,23805.41
2022-08-14T11:47:34.729Z,23933.56
2022-08-14T11:50:15.017Z,23919.34
2022-08-14T11:53:04.506Z,23951.88
2022-08-14T11:55:38.431Z,23992.56
2022-08-14T11:58:10.986Z,24086.16
2022-08-14T12:00:49.455Z,24055.66
2022-08-14T12:03:27.068Z,24126.84
2022-08-14T12:06:28.042Z,24118.72
2022-08-14T12:08:59.937Z,24086.16
2022-08-14T12:11:43.193Z,24084.13
2022-08-14T12:14:30.091Z,24120.75
2022-08-14T12:17:12.015Z,24035.31
2022-08-14T12:19:53.731Z,23964.09
2022-08-14T12:22:36.101Z,24012.91
2022-08-14T12:25:11.506Z,24082.09
2022-08-14T12:27:52.967Z,24135.00
2022-08-14T12:30:41.745Z,24116.69
2022-08-14T12:33:27.121Z,24014.94
2022-08-14T12:36:04.388Z,24025.13
2022-08-14T12:38:38.077Z,24035.31
2022-08-14T12:41:20.443Z,24104.47
2022-08-14T12:43:53.449Z,24289.63
2022-08-14T12:46:28.828Z,24399.50
2022-08-14T12:48:59.968Z,24423.91
2022-08-14T12:51:31.129Z,24647.75
2022-08-14T12:54:01.127Z,24751.53
2022-08-14T12:56:33.816Z,24775.94
2022-08-14T12:59:03.433Z,24832.94
2022-08-14T13:01:59.278Z,24975.38
2022-08-14T13:04:22.758Z,25176.84
2022-08-14T13:06:52.723Z,25351.88
2022-08-14T13:09:27.839Z,25305.06
2022-08-14T13:12:32.122Z,25009.97
2022-08-14T13:14:59.801Z,24788.16
2022-08-14T13:17:29.538Z,24841.06
2022-08-14T13:20:10.415Z,24861.41
2022-08-14T13:22:42.807Z,24932.66
2022-08-14T13:25:15.671Z,24934.69
2022-08-14T13:27:54.538Z,24718.97
2022-08-14T13:30:25.957Z,24527.69
2022-08-14T13:32:57.714Z,24432.06
2022-08-14T13:35:27.185Z,24362.88
2022-08-14T13:37:56.041Z,24283.53
2022-08-14T13:40:26.618Z,24263.19
2022-08-14T13:42:57.851Z,24204.16
2022-08-14T13:45:33.851Z,24027.16
2022-08-14T13:48:27.404Z,23988.50
2022-08-14T13:51:07.934Z,23966.13
2022-08-14T13:54:06.921Z,24153.31
2022-08-14T13:56:40.951Z,24312.00
2022-08-14T13:59:11.937Z,24244.88
2022-08-14T14:01:51.712Z,24389.34
2022-08-14T14:04:20.371Z,24368.97
2022-08-14T14:06:52.230Z,24491.06
2022-08-14T14:09:32.738Z,24523.63
2022-08-14T14:12:37.582Z,24637.56
2022-08-14T14:15:10.652Z,24478.84
2022-08-14T14:17:40.600Z,24385.25
2022-08-14T14:20:34.906Z,24303.88
2022-08-14T14:23:11.643Z,24250.97
2022-08-14T14:25:49.352Z,24336.44
2022-08-14T14:28:32.157Z,24395.44
2022-08-14T14:31:05.945Z,24419.84
2022-08-14T14:33:52.358Z,24368.97
2022-08-14T14:36:29.091Z,24393.41
2022-08-14T14:39:01.128Z,24478.84
2022-08-14T14:41:38.513Z,24421.88
2022-08-14T14:44:15.941Z,24491.06
2022-08-14T14:46:50.777Z,24409.69
2022-08-14T14:49:22.193Z,24493.09
2022-08-14T14:52:00.488Z,24425.97
2022-08-14T14:54:31.493Z,24275.38
2022-08-14T14:57:02.385Z,24228.59
2022-08-14T14:59:33.386Z,24161.44
2022-08-14T15:02:08.041Z,24187.91
2022-08-14T15:04:38.311Z,24212.31
2022-08-14T15:07:07.712Z,24273.34
2022-08-14T15:09:36.256Z,24299.81
2022-08-14T15:12:34.154Z,24167.56
2022-08-14T15:14:54.643Z,24078.03
2022-08-14T15:17:35.195Z,24049.53
2022-08-14T15:20:17.619Z,24006.81
2022-08-14T15:23:00.662Z,24057.69
2022-08-14T15:25:31.897Z,24055.66
2022-08-14T15:28:00.807Z,24096.34
2022-08-14T15:30:32.259Z,24185.84
2022-08-14T15:33:02.235Z,24226.56
2022-08-14T15:35:34.128Z,24263.19
2022-08-14T15:38:08.721Z,24291.66
2022-08-14T15:40:41.088Z,24293.69
2022-08-14T15:43:12.789Z,24238.75
2022-08-14T15:45:42.509Z,24240.78
2022-08-14T15:48:18.421Z,24151.28
2022-08-14T15:50:50.925Z,24096.34
2022-08-14T15:53:22.434Z,24010.88
2022-08-14T15:55:53.017Z,23923.41
2022-08-14T15:58:21.690Z,23831.84
2022-08-14T16:01:07.475Z,23835.91
2022-08-14T16:03:39.890Z,23734.19
2022-08-14T16:06:15.519Z,23756.56
2022-08-14T16:08:50.443Z,23748.44
2022-08-14T16:11:26.880Z,23726.06
2022-08-14T16:13:57.530Z,23687.41
2022-08-14T16:16:48.143Z,23610.09
2022-08-14T16:19:23.674Z,23542.97
2022-08-14T16:22:01.240Z,23624.34
2022-08-14T16:25:00.495Z,23583.66
2022-08-14T16:27:37.845Z,23571.44
2022-08-14T16:30:12.241Z,23524.66
2022-08-14T16:32:54.870Z,23522.63
2022-08-14T16:35:42.720Z,23483.97
2022-08-14T16:41:26.400Z,23388.38
2022-08-14T16:44:02.359Z,23457.53
2022-08-14T16:46:44.531Z,23443.28
2022-08-14T16:49:17.405Z,23490.06
2022-08-14T16:51:52.682Z,23528.72
2022-08-14T16:54:35.180Z,23477.88
2022-08-14T16:57:18.412Z,23422.94
2022-08-14T16:59:52.294Z,23366.00
2022-08-14T17:02:37.128Z,23366.00
2022-08-14T17:05:21.720Z,23351.75
2022-08-14T17:08:33.330Z,23311.06
2022-08-14T17:11:11.187Z,23341.56
2022-08-14T17:13:58.754Z,23335.47
2022-08-14T17:16:35.851Z,23315.13
2022-08-14T17:19:09.910Z,23262.25
2022-08-14T17:21:47.078Z,23211.38
2022-08-14T17:24:56.374Z,23229.69
2022-08-14T17:27:09.175Z,23229.69
2022-08-14T17:29:44.987Z,23180.88
2022-08-14T17:32:29.329Z,23164.59
2022-08-14T17:35:16.884Z,23107.66
2022-08-14T17:37:55.555Z,23016.13
2022-08-14T17:40:31.352Z,23014.09
2022-08-14T17:43:01.950Z,23038.50
2022-08-14T17:45:47.122Z,22989.69
2022-08-14T17:49:09.952Z,22981.53
2022-08-14T17:51:30.225Z,22902.22
2022-08-14T17:54:03.032Z,22906.28
2022-08-14T17:56:34.182Z,22859.50
2022-08-14T17:59:07.362Z,22812.72
2022-08-14T18:01:46.346Z,22790.34
2022-08-14T18:04:28.238Z,22792.38
2022-08-14T18:07:08.996Z,22723.22
2022-08-14T18:09:57.011Z,22692.72
2022-08-14T18:12:37.187Z,22674.41
2022-08-14T18:15:16.488Z,22666.28
2022-08-14T18:17:52.766Z,22650.00
2022-08-14T18:21:24.460Z,22654.06
2022-08-14T18:23:14.532Z,22619.50
2022-08-14T18:25:51.666Z,22560.53
2022-08-14T18:28:51.871Z,22530.00
2022-08-14T18:31:42.157Z,22538.16
2022-08-14T18:34:30.906Z,22515.78
2022-08-14T18:37:09.666Z,22466.97
2022-08-14T18:40:01.493Z,22436.47
2022-08-14T18:42:45.488Z,22424.25
2022-08-14T18:45:18.715Z,22401.88
2022-08-14T18:48:14.249Z,22395.78
2022-08-14T18:50:53.117Z,22448.66
2022-08-14T18:53:25.042Z,22410.03
2022-08-14T18:56:01.887Z,22371.38
2022-08-14T18:58:46.522Z,22408.00
2022-08-14T19:01:25.845Z,22357.16
2022-08-14T19:03:58.143Z,22367.31
2022-08-14T19:06:41.156Z,22355.13
2022-08-14T19:09:09.552Z,22314.44
2022-08-14T19:11:50.514Z,22304.28
2022-08-14T19:14:48.314Z,22322.56
2022-08-14T19:18:14.791Z,22285.97
2022-08-14T19:20:49.016Z,22306.31
2022-08-14T19:23:40.636Z,22233.09
2022-08-14T19:26:35.543Z,22218.84
2022-08-14T19:29:36.271Z,22222.94
2022-08-14T19:32:39.454Z,22281.91
2022-08-14T19:35:55.390Z,22243.25
2022-08-14T19:38:59.508Z,22196.50
2022-08-14T19:41:33.975Z,22214.78
2022-08-14T19:44:19.515Z,22180.22
2022-08-14T19:47:01.825Z,22198.53
2022-08-14T19:50:08.189Z,22180.22
2022-08-14T19:52:29.834Z,22157.84
2022-08-14T19:54:59.164Z,22147.69
2022-08-14T19:57:29.570Z,22100.91
2022-08-14T20:00:04.698Z,22123.28
2022-08-14T20:02:37.602Z,22129.38
2022-08-14T20:05:11.339Z,22125.31
2022-08-14T20:07:59.545Z,22090.75
2022-08-14T20:11:03.675Z,22098.88
2022-08-14T20:13:29.319Z,22098.88
2022-08-14T20:16:12.139Z,22102.94
2022-08-14T20:18:51.640Z,22094.81
2022-08-14T20:21:24.779Z,22123.28
2022-08-14T20:24:30.729Z,22123.28
2022-08-14T20:27:34.159Z,22070.41
2022-08-14T20:30:34.930Z,22088.72
2022-08-14T20:33:10.952Z,22098.88
2022-08-14T20:35:47.692Z,22107.00
2022-08-14T20:38:29.398Z,22084.66
2022-08-14T20:41:05.888Z,22102.94
2022-08-14T20:43:55.438Z,22104.97
2022-08-14T20:46:30.045Z,22050.06
2022-08-14T20:49:02.461Z,22021.59
2022-08-14T20:51:38.897Z,22048.03
2022-08-14T20:54:34.564Z,22052.09
2022-08-14T20:57:11.905Z,22033.81
2022-08-14T20:59:45.448Z,22072.44
2022-08-14T21:02:38.662Z,22021.59
2022-08-14T21:05:33.262Z,22023.63
2022-08-14T21:08:09.561Z,22011.44
2022-08-14T21:10:53.077Z,21968.72
2022-08-14T21:14:08.987Z,21966.69
2022-08-14T21:16:34.328Z,21944.34
2022-08-14T21:19:04.183Z,21915.88
2022-08-14T21:21:40.687Z,21889.44
2022-08-14T21:24:38.580Z,21936.19
2022-08-14T21:27:13.011Z,21883.31
2022-08-14T21:29:56.125Z,21885.38
2022-08-14T21:32:47.078Z,21865.03
2022-08-14T21:35:22.843Z,21869.09
2022-08-14T21:37:52.586Z,21873.16
2022-08-14T21:40:42.303Z,21897.56
2022-08-14T21:43:19.441Z,21844.69
2022-08-14T21:45:51.713Z,21854.88
2022-08-14T21:48:25.307Z,21842.66
2022-08-14T21:51:02.101Z,21867.06
2022-08-14T21:53:59.210Z,21863.00
2022-08-14T21:56:38.617Z,21818.25
2022-08-14T21:59:11.559Z,21846.72
2022-08-14T22:02:00.904Z,21822.31
2022-08-14T22:04:40.538Z,21793.84
2022-08-14T22:07:16.933Z,21816.22
2022-08-14T22:09:54.865Z,21783.69
2022-08-14T22:12:45.496Z,21818.25
2022-08-14T22:15:18.201Z,21824.34
2022-08-14T22:17:50.955Z,21793.84
2022-08-14T22:20:22.826Z,21795.88
2022-08-14T22:22:55.965Z,21779.63
2022-08-14T22:25:33.424Z,21753.19
2022-08-14T22:28:04.399Z,21781.66
2022-08-14T22:30:33.409Z,21734.88
2022-08-14T22:33:02.390Z,21763.34
2022-08-14T22:35:31.147Z,21779.63
2022-08-14T22:38:01.918Z,21743.03
2022-08-14T22:41:07.182Z,21720.66
2022-08-14T22:43:39.600Z,21724.72
2022-08-14T22:46:14.868Z,21698.28
2022-08-14T22:48:46.575Z,21690.16
2022-08-14T22:51:17.688Z,21714.56
2022-08-14T22:53:52.227Z,21712.53
2022-08-14T22:56:30.194Z,21682.03
2022-08-14T22:59:01.189Z,21708.47
2022-08-14T23:01:55.217Z,21677.97
2022-08-14T23:04:35.332Z,21675.94
2022-08-14T23:07:22.448Z,21667.78
2022-08-14T23:09:56.974Z,21655.59
2022-08-14T23:12:31.476Z,21692.19
2022-08-14T23:15:01.005Z,21669.81
2022-08-14T23:17:38.791Z,21614.94
2022-08-14T23:20:19.332Z,21635.25
2022-08-14T23:22:52.478Z,21637.28
2022-08-14T23:25:57.511Z,21623.06
2022-08-14T23:28:33.940Z,21614.94
2022-08-14T23:31:15.743Z,21649.50
2022-08-14T23:34:06.740Z,21655.59
2022-08-14T23:36:37.382Z,21619.00
2022-08-14T23:39:24.653Z,21598.66
2022-08-14T23:42:04.190Z,21574.25
2022-08-14T23:44:36.817Z,21549.84
2022-08-14T23:47:11.766Z,21619.00
2022-08-14T23:50:03.671Z,21580.34
2022-08-14T23:52:56.087Z,21586.47
2022-08-14T23:55:32.249Z,21598.66
2022-08-14T23:58:01.929Z,21598.66
